Time,TemperatureF,DewpointF,PressureIn,WindDirection,WindDirectionDegrees,WindSpeedMPH,WindSpeedGustMPH,Humidity,HourlyPrecipIn,Conditions,Clouds,dailyrainin,SoftwareType,DateUTC
2013-08-17 00:03:00,70.1,36.0,29.74,West,275,0.0,0.0,29,0.00,,,0.00,weatherlink.com 1.10,2013-08-17 06:03:00,
2013-08-17 00:18:00,69.1,38.0,29.74,West,275,0.0,0.0,32,0.00,,,0.00,weatherlink.com 1.10,2013-08-17 06:18:00,
2013-08-17 00:33:00,68.8,38.0,29.75,West,279,0.0,3.0,32,0.00,,,0.00,weatherlink.com 1.10,2013-08-17 06:33:00,
2013-08-17 00:48:00,66.7,37.0,29.75,West,276,0.0,0.0,34,0.00,,,0.00,weatherlink.com 1.10,2013-08-17 06:48:00,
2013-08-17 01:03:00,66.4,39.0,29.75,NW,325,4.0,6.0,36,0.00,,,0.00,weatherlink.com 1.10,2013-08-17 07:03:00,
2013-08-17 01:18:00,65.5,37.0,29.76,North,360,2.0,4.0,35,0.00,,,0.00,weatherlink.com 1.10,2013-08-17 07:18:00,
2013-08-17 01:33:00,65.8,38.0,29.76,WNW,296,1.0,3.0,36,0.00,,,0.00,weatherlink.com 1.10,2013-08-17 07:33:00,
2013-08-17 01:48:00,63.4,39.0,29.77,North,5,3.0,6.0,41,0.00,,,0.00,weatherlink.com 1.10,2013-08-17 07:48:00,
2013-08-17 02:03:00,63.2,38.0,29.76,WNW,283,1.0,4.0,39,0.00,,,0.00,weatherlink.com 1.10,2013-08-17 08:03:00,
2013-08-17 02:18:00,62.6,37.0,29.77,North,5,0.0,5.0,39,0.00,,,0.00,weatherlink.com 1.10,2013-08-17 08:18:00,
2013-08-17 02:33:00,62.5,38.0,29.78,ENE,63,0.0,0.0,40,0.00,,,0.00,weatherlink.com 1.10,2013-08-17 08:33:00,
2013-08-17 02:48:00,61.9,38.0,29.78,ENE,63,0.0,0.0,41,0.00,,,0.00,weatherlink.com 1.10,2013-08-17 08:48:00,
2013-08-17 03:03:00,62.0,37.0,29.78,ENE,63,0.0,0.0,40,0.00,,,0.00,weatherlink.com 1.10,2013-08-17 09:03:00,
2013-08-17 03:18:00,62.4,37.0,29.77,ENE,62,0.0,0.0,39,0.00,,,0.00,weatherlink.com 1.10,2013-08-17 09:18:00,
2013-08-17 03:33:00,62.1,39.0,29.77,WNW,291,0.0,2.0,42,0.00,,,0.00,weatherlink.com 1.10,2013-08-17 09:33:00,
2013-08-17 03:48:00,59.8,38.0,29.78,West,279,0.0,0.0,44,0.00,,,0.00,weatherlink.com 1.10,2013-08-17 09:48:00,
2013-08-17 04:03:00,60.0,38.0,29.79,West,280,0.0,0.0,44,0.00,,,0.00,weatherlink.com 1.10,2013-08-17 10:03:00,
2013-08-17 04:18:00,59.7,38.0,29.79,West,280,0.0,0.0,44,0.00,,,0.00,weatherlink.com 1.10,2013-08-17 10:18:00,
2013-08-17 04:34:00,58.1,37.0,29.79,West,280,0.0,0.0,46,0.00,,,0.00,weatherlink.com 1.10,2013-08-17 10:34:00,
2013-08-17 04:49:00,58.9,38.0,29.79,West,275,0.0,2.0,46,0.00,,,0.00,weatherlink.com 1.10,2013-08-17 10:49:00,
2013-08-17 05:04:00,58.4,38.0,29.79,West,281,0.0,0.0,47,0.00,,,0.00,weatherlink.com 1.10,2013-08-17 11:04:00,
2013-08-17 05:19:00,58.0,39.0,29.80,WNW,286,0.0,3.0,49,0.00,,,0.00,weatherlink.com 1.10,2013-08-17 11:19:00,
2013-08-17 05:34:00,57.4,39.0,29.80,WNW,287,2.0,3.0,50,0.00,,,0.00,weatherlink.com 1.10,2013-08-17 11:34:00,
2013-08-17 05:49:00,55.9,39.0,29.80,NW,313,0.0,4.0,53,0.00,,,0.00,weatherlink.com 1.10,2013-08-17 11:49:00,
2013-08-17 06:04:00,55.3,40.0,29.81,NW,312,0.0,0.0,57,0.00,,,0.00,weatherlink.com 1.10,2013-08-17 12:04:00,
2013-08-17 06:19:00,54.8,39.0,29.81,NW,313,0.0,0.0,55,0.00,,,0.00,weatherlink.com 1.10,2013-08-17 12:19:00,
2013-08-17 06:34:00,55.5,40.0,29.82,North,9,3.0,4.0,56,0.00,,,0.00,weatherlink.com 1.10,2013-08-17 12:34:00,
2013-08-17 06:49:00,55.1,39.0,29.82,North,5,0.0,2.0,55,0.00,,,0.00,weatherlink.com 1.10,2013-08-17 12:49:00,
2013-08-17 07:04:00,55.0,39.0,29.82,NW,325,0.0,0.0,55,0.00,,,0.00,weatherlink.com 1.10,2013-08-17 13:04:00,
2013-08-17 07:19:00,54.9,38.0,29.83,NW,324,0.0,0.0,54,0.00,,,0.00,weatherlink.com 1.10,2013-08-17 13:19:00,
2013-08-17 07:34:00,55.4,39.0,29.83,NW,324,0.0,0.0,55,0.00,,,0.00,weatherlink.com 1.10,2013-08-17 13:34:00,
2013-08-17 07:49:00,56.4,41.0,29.84,NW,323,0.0,0.0,56,0.00,,,0.00,weatherlink.com 1.10,2013-08-17 13:49:00,
2013-08-17 08:04:00,58.5,41.0,29.84,NW,324,0.0,0.0,53,0.00,,,0.00,weatherlink.com 1.10,2013-08-17 14:04:00,
2013-08-17 08:19:00,60.9,41.0,29.84,NW,325,0.0,0.0,49,0.00,,,0.00,weatherlink.com 1.10,2013-08-17 14:19:00,
2013-08-17 08:34:00,61.7,43.0,29.84,NW,315,0.0,5.0,50,0.00,,,0.00,weatherlink.com 1.10,2013-08-17 14:34:00,
2013-08-17 08:49:00,63.7,43.0,29.84,North,350,0.0,0.0,47,0.00,,,0.00,weatherlink.com 1.10,2013-08-17 14:49:00,
2013-08-17 09:04:00,65.8,43.0,29.84,North,349,0.0,1.0,44,0.00,,,0.00,weatherlink.com 1.10,2013-08-17 15:04:00,
2013-08-17 09:19:00,68.0,45.0,29.83,SSW,199,0.0,0.0,44,0.00,,,0.00,weatherlink.com 1.10,2013-08-17 15:19:00,
2013-08-17 09:34:00,69.4,46.0,29.83,SSE,158,0.0,3.0,43,0.00,,,0.00,weatherlink.com 1.10,2013-08-17 15:34:00,
2013-08-17 09:49:00,71.0,47.0,29.82,SSE,157,0.0,3.0,43,0.00,,,0.00,weatherlink.com 1.10,2013-08-17 15:49:00,
2013-08-17 10:04:00,73.0,47.0,29.82,SE,144,0.0,4.0,40,0.00,,,0.00,weatherlink.com 1.10,2013-08-17 16:04:00,
2013-08-17 10:19:00,74.9,48.0,29.80,SSE,159,0.0,5.0,38,0.00,,,0.00,weatherlink.com 1.10,2013-08-17 16:19:00,
2013-08-17 10:34:00,77.6,48.0,29.80,SE,138,2.0,8.0,35,0.00,,,0.00,weatherlink.com 1.10,2013-08-17 16:34:00,
2013-08-17 10:50:00,79.6,47.0,29.80,ESE,111,1.0,5.0,32,0.00,,,0.00,weatherlink.com 1.10,2013-08-17 16:50:00,
2013-08-17 11:05:00,81.3,47.0,29.79,ESE,123,1.0,5.0,30,0.00,,,0.00,weatherlink.com 1.10,2013-08-17 17:05:00,
2013-08-17 11:20:00,82.9,47.0,29.79,ESE,119,0.0,5.0,28,0.00,,,0.00,weatherlink.com 1.10,2013-08-17 17:20:00,
2013-08-17 11:35:00,83.9,49.0,29.79,South,173,0.0,6.0,30,0.00,,,0.00,weatherlink.com 1.10,2013-08-17 17:35:00,
2013-08-17 11:50:00,83.9,48.0,29.78,SSE,158,0.0,8.0,29,0.00,,,0.00,weatherlink.com 1.10,2013-08-17 17:50:00,
2013-08-17 12:05:00,84.7,46.0,29.77,ESE,117,0.0,13.0,26,0.00,,,0.00,weatherlink.com 1.10,2013-08-17 18:05:00,
2013-08-17 12:20:00,85.6,45.0,29.75,SE,137,6.0,12.0,24,0.00,,,0.00,weatherlink.com 1.10,2013-08-17 18:20:00,
2013-08-17 12:35:00,85.6,47.0,29.75,South,169,2.0,9.0,26,0.00,,,0.00,weatherlink.com 1.10,2013-08-17 18:35:00,
2013-08-17 12:50:00,86.3,44.0,29.74,SE,127,6.0,16.0,23,0.00,,,0.00,weatherlink.com 1.10,2013-08-17 18:50:00,
2013-08-17 13:05:00,87.6,45.0,29.73,SSE,157,2.0,10.0,23,0.00,,,0.00,weatherlink.com 1.10,2013-08-17 19:05:00,
2013-08-17 13:20:00,88.0,47.0,29.73,ESE,117,9.0,18.0,24,0.00,,,0.00,weatherlink.com 1.10,2013-08-17 19:20:00,
2013-08-17 13:35:00,88.8,45.0,29.72,South,169,1.0,22.0,22,0.00,,,0.00,weatherlink.com 1.10,2013-08-17 19:35:00,
2013-08-17 13:50:00,88.8,44.0,29.73,WSW,257,2.0,16.0,21,0.00,,,0.00,weatherlink.com 1.10,2013-08-17 19:50:00,
2013-08-17 14:05:00,89.3,45.0,29.72,South,169,5.0,13.0,21,0.00,,,0.00,weatherlink.com 1.10,2013-08-17 20:05:00,
2013-08-17 14:20:00,89.8,45.0,29.72,SSE,150,1.0,11.0,21,0.00,,,0.00,weatherlink.com 1.10,2013-08-17 20:20:00,
2013-08-17 14:35:00,90.4,43.0,29.70,SE,146,6.0,13.0,19,0.00,,,0.00,weatherlink.com 1.10,2013-08-17 20:35:00,
2013-08-17 14:50:00,90.9,45.0,29.70,WSW,249,5.0,9.0,20,0.00,,,0.00,weatherlink.com 1.10,2013-08-17 20:50:00,
2013-08-17 15:05:00,91.1,43.0,29.70,WSW,253,8.0,13.0,19,0.00,,,0.00,weatherlink.com 1.10,2013-08-17 21:05:00,
2013-08-17 15:20:00,91.9,41.0,29.70,WSW,237,7.0,9.0,17,0.00,,,0.00,weatherlink.com 1.10,2013-08-17 21:20:00,
2013-08-17 15:35:00,91.4,41.0,29.69,WSW,239,3.0,11.0,17,0.00,,,0.00,weatherlink.com 1.10,2013-08-17 21:35:00,
2013-08-17 15:50:00,89.8,42.0,29.69,WSW,258,6.0,10.0,19,0.00,,,0.00,weatherlink.com 1.10,2013-08-17 21:50:00,
2013-08-17 16:05:00,89.9,42.0,29.69,SW,236,2.0,12.0,19,0.00,,,0.00,weatherlink.com 1.10,2013-08-17 22:05:00,
2013-08-17 16:20:00,91.8,41.0,29.68,South,170,0.0,15.0,17,0.00,,,0.00,weatherlink.com 1.10,2013-08-17 22:20:00,
2013-08-17 16:35:00,91.9,43.0,29.68,West,264,8.0,9.0,18,0.00,,,0.00,weatherlink.com 1.10,2013-08-17 22:35:00,
2013-08-17 16:50:00,90.4,43.0,29.68,WSW,252,7.0,15.0,19,0.00,,,0.00,weatherlink.com 1.10,2013-08-17 22:50:00,
2013-08-17 17:05:00,89.9,42.0,29.68,WSW,258,3.0,8.0,19,0.00,,,0.00,weatherlink.com 1.10,2013-08-17 23:05:00,
2013-08-17 17:20:00,90.9,45.0,29.68,WSW,255,6.0,8.0,20,0.00,,,0.00,weatherlink.com 1.10,2013-08-17 23:20:00,
2013-08-17 17:35:00,92.1,43.0,29.68,SW,230,0.0,8.0,18,0.00,,,0.00,weatherlink.com 1.10,2013-08-17 23:35:00,
2013-08-17 17:50:00,91.9,44.0,29.67,West,265,5.0,9.0,19,0.00,,,0.00,weatherlink.com 1.10,2013-08-17 23:50:00,
2013-08-17 18:05:00,90.0,44.0,29.67,West,277,6.0,11.0,20,0.00,,,0.00,weatherlink.com 1.10,2013-08-18 00:05:00,
2013-08-17 18:20:00,90.4,44.0,29.67,West,274,6.0,11.0,20,0.00,,,0.00,weatherlink.com 1.10,2013-08-18 00:20:00,
2013-08-17 18:35:00,90.4,41.0,29.67,WNW,282,11.0,13.0,18,0.00,,,0.00,weatherlink.com 1.10,2013-08-18 00:35:00,
2013-08-17 18:50:00,89.6,42.0,29.68,WNW,287,5.0,9.0,19,0.00,,,0.00,weatherlink.com 1.10,2013-08-18 00:50:00,
2013-08-17 19:05:00,88.6,43.0,29.67,NW,311,5.0,10.0,20,0.00,,,0.00,weatherlink.com 1.10,2013-08-18 01:05:00,
2013-08-17 19:20:00,87.6,42.0,29.68,WNW,291,5.0,10.0,20,0.00,,,0.00,weatherlink.com 1.10,2013-08-18 01:20:00,
2013-08-17 19:35:00,86.6,42.0,29.69,WNW,294,3.0,7.0,21,0.00,,,0.00,weatherlink.com 1.10,2013-08-18 01:35:00,
2013-08-17 19:50:00,85.6,41.0,29.69,WNW,295,1.0,10.0,21,0.00,,,0.00,weatherlink.com 1.10,2013-08-18 01:50:00,
2013-08-17 20:06:00,84.5,42.0,29.69,WNW,300,3.0,6.0,22,0.00,,,0.00,weatherlink.com 1.10,2013-08-18 02:06:00,
2013-08-17 20:21:00,83.0,42.0,29.69,WNW,285,0.0,4.0,23,0.00,,,0.00,weatherlink.com 1.10,2013-08-18 02:21:00,
2013-08-17 20:36:00,82.2,42.0,29.69,WNW,294,0.0,6.0,24,0.00,,,0.00,weatherlink.com 1.10,2013-08-18 02:36:00,
2013-08-17 20:51:00,80.8,43.0,29.70,West,278,0.0,0.0,26,0.00,,,0.00,weatherlink.com 1.10,2013-08-18 02:51:00,
2013-08-17 21:06:00,80.3,41.0,29.71,South,181,0.0,0.0,25,0.00,,,0.00,weatherlink.com 1.10,2013-08-18 03:06:00,
2013-08-17 21:21:00,80.3,41.0,29.72,North,350,1.0,6.0,25,0.00,,,0.00,weatherlink.com 1.10,2013-08-18 03:21:00,
2013-08-17 21:36:00,79.9,42.0,29.73,NNE,32,5.0,9.0,26,0.00,,,0.00,weatherlink.com 1.10,2013-08-18 03:36:00,
2013-08-17 21:51:00,79.0,43.0,29.73,NNE,21,2.0,6.0,28,0.00,,,0.00,weatherlink.com 1.10,2013-08-18 03:51:00,
2013-08-17 22:06:00,78.7,43.0,29.74,North,349,2.0,6.0,28,0.00,,,0.00,weatherlink.com 1.10,2013-08-18 04:06:00,
2013-08-17 22:21:00,76.5,44.0,29.74,WNW,292,0.0,5.0,32,0.00,,,0.00,weatherlink.com 1.10,2013-08-18 04:21:00,
2013-08-17 22:36:00,73.6,44.0,29.75,West,277,0.0,5.0,35,0.00,,,0.00,weatherlink.com 1.10,2013-08-18 04:36:00,
2013-08-17 22:51:00,72.5,43.0,29.75,WNW,286,1.0,4.0,35,0.00,,,0.00,weatherlink.com 1.10,2013-08-18 04:51:00,
2013-08-17 23:06:00,72.0,44.0,29.75,NW,315,3.0,3.0,36,0.00,,,0.00,weatherlink.com 1.10,2013-08-18 05:06:00,
2013-08-17 23:21:00,72.8,44.0,29.76,NW,306,0.0,2.0,35,0.00,,,0.00,weatherlink.com 1.10,2013-08-18 05:21:00,
2013-08-17 23:36:00,72.1,44.0,29.76,NW,305,0.0,0.0,36,0.00,,,0.00,weatherlink.com 1.10,2013-08-18 05:36:00,
2013-08-17 23:51:00,72.2,44.0,29.76,WNW,288,0.0,2.0,37,0.00,,,0.00,weatherlink.com 1.10,2013-08-18 05:51:00,